Time;durP1;ratioP1;P1;durP2;ratioP2;P2;SDS_P1;SDS_P2;PMS_P1;PMS_P2;Temp;Humidity;BMP_temperature;BMP_pressure;BME280_temperature;BME280_humidity;BME280_pressure;Samples;Min_cycle;Max_cycle;Signal;HPM_P1;HPM_P2
2021/11/23 11:41:52;;;;;;;17.77;8.90;;;;;;;1.77;100.00;95800.22;5128071;27;20357;-59
2021/11/23 11:44:20;;;;;;;17.27;9.75;;;;;;;1.82;100.00;95803.09;5093727;27;20042;-59
2021/11/23 11:47:05;;;;;;;15.85;8.80;;;;;;;1.84;100.00;95813.47;5108977;28;20027;-61
2021/11/23 11:49:55;;;;;;;17.15;9.88;;;;;;;1.83;100.00;95815.28;5102987;28;20031;-59
2021/11/23 11:52:23;;;;;;;16.25;9.30;;;;;;;1.79;100.00;95810.59;5120109;27;20047;-58
2021/11/23 11:55:30;;;;;;;15.60;8.68;;;;;;;1.79;100.00;95813.25;5125268;27;20023;-61
2021/11/23 11:58:01;;;;;;;13.90;8.27;;;;;;;1.76;100.00;95808.34;5072107;28;20027;-58
2021/11/23 12:00:33;;;;;;;14.35;8.15;;;;;;;1.77;100.00;95807.34;5111803;28;20080;-58
2021/11/23 12:03:07;;;;;;;15.02;8.80;;;;;;;1.78;100.00;95801.03;5130663;28;20084;-61
2021/11/23 12:06:06;;;;;;;13.75;8.68;;;;;;;1.80;100.00;95799.03;5129968;28;20125;-60
2021/11/23 12:08:40;;;;;;;12.55;7.80;;;;;;;1.82;100.00;95805.72;5113499;28;20470;-62
2021/11/23 12:11:08;;;;;;;14.98;8.57;;;;;;;1.82;100.00;95797.00;5112550;28;20038;-60
2021/11/23 12:13:52;;;;;;;12.40;7.55;;;;;;;1.82;100.00;95799.63;5094823;28;20023;-59
2021/11/23 12:16:37;;;;;;;12.00;7.75;;;;;;;1.86;100.00;95796.44;5112958;28;20027;-60
2021/11/23 12:19:22;;;;;;;11.38;7.28;;;;;;;1.86;100.00;95782.41;5091733;28;20023;-62
2021/11/23 12:21:52;;;;;;;12.00;7.32;;;;;;;1.90;100.00;95794.22;5091151;28;20032;-60
2021/11/23 12:24:25;;;;;;;11.85;6.88;;;;;;;1.88;100.00;95781.19;5091440;28;20027;-60
2021/11/23 12:26:53;;;;;;;13.50;7.55;;;;;;;1.91;100.00;95793.19;5098492;28;20481;-59
2021/11/23 12:29:25;;;;;;;11.55;7.30;;;;;;;1.94;100.00;95788.34;5129412;28;20058;-59
2021/11/23 12:31:51;;;;;;;10.90;7.10;;;;;;;1.98;100.00;95784.31;5111901;27;20023;-61
2021/11/23 12:34:17;;;;;;;12.90;7.72;;;;;;;2.00;100.00;95782.28;5104480;28;20470;-59
2021/11/23 12:36:50;;;;;;;11.35;7.20;;;;;;;1.99;100.00;95779.84;5097706;28;20533;-61
2021/11/23 12:39:20;;;;;;;10.32;6.30;;;;;;;1.99;100.00;95770.09;5117229;27;20057;-64
2021/11/23 12:41:48;;;;;;;10.98;7.18;;;;;;;2.00;100.00;95774.38;5128212;27;20044;-60
2021/11/23 12:44:20;;;;;;;11.48;7.20;;;;;;;2.06;100.00;95766.66;5106443;28;20030;-60
2021/11/23 12:46:54;;;;;;;10.75;6.85;;;;;;;2.03;100.00;95765.22;5102886;28;20072;-61
2021/11/23 12:49:19;;;;;;;11.63;6.63;;;;;;;2.08;100.00;95762.00;5120622;27;20486;-60
2021/11/23 12:51:56;;;;;;;10.65;7.18;;;;;;;2.08;100.00;95759.38;5102129;28;20028;-58
2021/11/23 12:54:33;;;;;;;13.48;7.93;;;;;;;2.10;100.00;95752.88;5115473;28;20055;-61
2021/11/23 12:57:04;;;;;;;12.40;7.55;;;;;;;2.11;100.00;95756.34;5093995;28;20024;-58
2021/11/23 12:59:34;;;;;;;12.50;7.72;;;;;;;2.10;100.00;95752.06;5068475;28;20020;-56
2021/11/23 13:02:04;;;;;;;11.82;6.85;;;;;;;2.13;100.00;95749.03;5090657;28;20058;-62
2021/11/23 13:04:37;;;;;;;11.27;7.15;;;;;;;2.11;100.00;95743.94;5100880;27;20024;-61
2021/11/23 13:07:08;;;;;;;11.48;7.38;;;;;;;2.13;100.00;95749.03;5076786;28;20055;-60
2021/11/23 13:09:50;;;;;;;10.77;7.22;;;;;;;2.14;100.00;95755.94;5089046;28;20019;-59
2021/11/23 13:12:19;;;;;;;12.23;7.63;;;;;;;2.02;100.00;95745.09;5095163;28;20115;-59
2021/11/23 13:14:56;;;;;;;12.85;7.97;;;;;;;1.89;100.00;95745.84;5103108;28;20463;-59
2021/11/23 13:17:52;;;;;;;13.80;7.10;;;;;;;1.79;100.00;95741.94;5094892;28;20073;-60
2021/11/23 13:20:59;;;;;;;12.70;7.20;;;;;;;1.67;100.00;95742.47;5083989;28;20444;-58
2021/11/23 13:23:38;;;;;;;11.38;7.40;;;;;;;1.54;100.00;95739.75;5115218;28;20034;-60
2021/11/23 13:26:07;;;;;;;14.15;8.45;;;;;;;1.53;100.00;95750.50;5097079;28;20023;-60
2021/11/23 13:28:44;;;;;;;11.95;7.43;;;;;;;1.52;100.00;95754.97;5096745;28;20046;-60
2021/11/23 13:31:25;;;;;;;10.80;7.07;;;;;;;1.48;100.00;95752.88;5114882;28;20019;-60
2021/11/23 13:33:56;;;;;;;10.40;7.05;;;;;;;1.44;100.00;95761.19;5102666;28;20042;-59
2021/11/23 13:36:39;;;;;;;10.85;7.43;;;;;;;1.47;100.00;95770.53;5076313;28;20398;-60
2021/11/23 13:39:11;;;;;;;;;;;;;;;1.49;100.00;95773.00;5071660;28;20028;-61
2021/11/23 13:41:42;;;;;;;10.80;6.82;;;;;;;1.51;100.00;95771.78;5072375;28;19970;-60
2021/11/23 13:44:08;;;;;;;14.20;8.15;;;;;;;1.50;100.00;95772.78;5074034;28;20033;-56
2021/11/23 13:46:44;;;;;;;11.60;7.43;;;;;;;1.53;100.00;95777.72;5088798;28;20031;-62
2021/11/23 13:49:12;;;;;;;11.57;7.30;;;;;;;1.53;100.00;95774.25;5094208;28;20034;-61
2021/11/23 13:51:38;;;;;;;11.65;7.97;;;;;;;1.54;100.00;95781.97;5093214;28;20535;-61
2021/11/23 13:54:08;;;;;;;10.35;7.25;;;;;;;1.55;100.00;95783.63;5092211;28;20024;-65
2021/11/23 13:56:52;;;;;;;10.00;7.30;;;;;;;1.54;100.00;95789.09;5094316;28;20016;-60
2021/11/23 13:59:19;;;;;;;14.30;8.77;;;;;;;1.55;100.00;95790.72;5095869;22;20452;-65
2021/11/23 14:01:57;;;;;;;13.95;7.97;;;;;;;1.50;100.00;95793.91;5069255;28;20020;-64
2021/11/23 14:04:25;;;;;;;10.88;7.20;;;;;;;1.54;100.00;95797.00;5053126;28;20024;-63
2021/11/23 14:07:08;;;;;;;10.93;7.72;;;;;;;1.55;100.00;95811.84;5050113;28;20494;-65
2021/11/23 14:09:45;;;;;;;;;;;;;;;1.57;100.00;95808.00;5053881;28;20028;-65
2021/11/23 14:12:12;;;;;;;12.18;7.55;;;;;;;1.57;100.00;95800.06;5068856;28;19951;-66
2021/11/23 14:15:14;;;;;;;10.85;6.88;;;;;;;1.61;100.00;95811.06;5050022;28;20392;-66
2021/11/23 14:18:02;;;;;;;10.73;7.18;;;;;;;1.63;100.00;95811.72;5019455;28;20044;-66
2021/11/23 14:20:46;;;;;;;13.40;7.85;;;;;;;1.67;100.00;95812.94;5068094;28;20029;-65
2021/11/23 14:23:16;;;;;;;12.82;7.47;;;;;;;1.68;100.00;95815.41;5036839;28;20020;-66
2021/11/23 14:25:43;;;;;;;11.90;7.65;;;;;;;1.69;100.00;95819.66;5070759;28;20032;-66
2021/11/23 14:28:10;;;;;;;12.55;7.57;;;;;;;1.72;100.00;95816.63;5053885;28;20020;-66
2021/11/23 14:30:37;;;;;;;12.68;7.95;;;;;;;1.74;100.00;95819.91;5053191;28;20025;-67
2021/11/23 14:33:03;;;;;;;11.38;7.40;;;;;;;1.74;100.00;95825.19;5036846;28;20039;-65
2021/11/23 14:35:30;;;;;;;11.45;7.63;;;;;;;1.76;100.00;95826.84;5052292;28;20382;-65
2021/11/23 14:37:56;;;;;;;10.45;7.32;;;;;;;1.74;100.00;95821.75;5052568;28;20028;-66
2021/11/23 14:40:24;;;;;;;12.13;7.75;;;;;;;1.72;100.00;95821.91;5052670;28;20032;-66
2021/11/23 14:45:33;;;;;;;11.50;7.60;;;;;;;1.74;100.00;95814.63;5069893;28;20197;-66
2021/11/23 14:47:58;;;;;;;13.85;7.80;;;;;;;1.73;100.00;95820.91;5053863;28;20028;-66
2021/11/23 14:50:24;;;;;;;11.82;7.13;;;;;;;1.72;100.00;95821.91;5070650;28;20021;-66
2021/11/23 14:52:49;;;;;;;11.43;7.50;;;;;;;1.71;100.00;95824.75;5052885;28;20084;-65
2021/11/23 14:55:15;;;;;;;11.57;7.70;;;;;;;1.68;100.00;95820.69;5052070;28;20028;-66
2021/11/23 14:57:41;;;;;;;12.45;7.65;;;;;;;1.67;100.00;95818.22;5052921;28;20418;-65
2021/11/23 15:00:08;;;;;;;11.00;7.30;;;;;;;1.66;100.00;95811.31;5060276;28;20037;-64
2021/11/23 15:02:33;;;;;;;10.18;7.10;;;;;;;1.62;100.00;95816.16;5063536;28;20532;-66
2021/11/23 15:04:59;;;;;;;10.52;7.18;;;;;;;1.60;100.00;95827.91;5068931;28;20111;-64
2021/11/23 15:07:26;;;;;;;14.00;7.63;;;;;;;1.59;100.00;95827.09;5065033;28;20112;-64
2021/11/23 15:09:53;;;;;;;12.15;7.35;;;;;;;1.56;100.00;95819.56;5068200;28;20693;-64
2021/11/23 15:12:19;;;;;;;10.48;6.93;;;;;;;1.56;100.00;95830.13;5052542;28;20033;-64
2021/11/23 15:14:45;;;;;;;11.00;7.43;;;;;;;1.55;100.00;95827.69;5040746;28;20170;-65
2021/11/23 15:17:14;;;;;;;10.75;7.07;;;;;;;1.52;100.00;95823.59;5063359;28;20025;-64
2021/11/23 15:19:39;;;;;;;13.18;8.40;;;;;;;1.51;100.00;95829.03;5050944;28;20509;-62
2021/11/23 15:22:05;;;;;;;11.90;7.70;;;;;;;1.50;100.00;95833.50;5051799;28;20163;-66
2021/11/23 15:24:32;;;;;;;10.88;7.40;;;;;;;1.49;100.00;95829.25;5051994;28;20056;-64
2021/11/23 15:27:04;;;;;;;11.65;7.15;;;;;;;1.49;100.00;95841.63;5050684;28;20037;-64
2021/11/23 15:29:30;;;;;;;10.43;7.37;;;;;;;1.47;100.00;95833.09;5050462;28;20025;-63
2021/11/23 15:32:00;;;;;;;10.45;7.15;;;;;;;1.43;100.00;95835.31;5050090;28;20769;-64
2021/11/23 15:34:31;;;;;;;12.35;8.07;;;;;;;1.43;100.00;95837.94;5051586;28;20040;-65
2021/11/23 15:36:57;;;;;;;12.07;7.53;;;;;;;1.42;100.00;95836.31;5035965;28;20032;-63
2021/11/23 15:39:23;;;;;;;12.63;7.88;;;;;;;1.41;100.00;95834.66;5068974;28;20090;-64
2021/11/23 15:41:48;;;;;;;11.18;7.20;;;;;;;1.40;100.00;95830.38;5070203;28;20075;-66
2021/11/23 15:44:20;;;;;;;10.55;7.35;;;;;;;1.38;100.00;95842.94;5053354;28;20031;-64
2021/11/23 15:46:46;;;;;;;12.73;7.70;;;;;;;1.38;100.00;95849.03;5064073;28;20031;-64
2021/11/23 15:49:12;;;;;;;12.48;7.40;;;;;;;1.36;100.00;95848.41;5066029;28;20372;-64
2021/11/23 15:51:39;;;;;;;11.27;7.32;;;;;;;1.36;100.00;95842.31;5051243;28;20032;-63
2021/11/23 15:54:05;;;;;;;12.55;8.40;;;;;;;1.36;100.00;95842.31;5070352;28;20445;-63
2021/11/23 15:56:30;;;;;;;10.38;7.50;;;;;;;1.34;100.00;95853.06;5072135;28;20025;-62
2021/11/23 15:58:56;;;;;;;13.55;7.28;;;;;;;1.32;100.00;95852.47;5066004;28;20024;-62
2021/11/23 16:01:25;;;;;;;11.02;7.88;;;;;;;1.34;100.00;95845.16;5053982;28;20044;-62
2021/11/23 16:03:53;;;;;;;12.32;7.70;;;;;;;1.33;100.00;95845.34;5053011;28;20046;-63
2021/11/23 16:06:20;;;;;;;11.73;7.82;;;;;;;1.34;100.00;95845.16;5069168;28;20016;-63
2021/11/23 16:08:45;;;;;;;11.57;7.57;;;;;;;1.34;100.00;95853.06;5068726;28;20031;-62
2021/11/23 16:11:11;;;;;;;12.05;7.63;;;;;;;1.34;100.00;95844.34;5070682;28;20025;-62
2021/11/23 16:13:40;;;;;;;14.32;8.25;;;;;;;1.33;100.00;95846.16;5067399;28;20437;-62
2021/11/23 16:16:06;;;;;;;11.70;8.05;;;;;;;1.34;100.00;95845.16;5051559;28;20075;-62
2021/11/23 16:18:31;;;;;;;12.68;7.82;;;;;;;1.36;100.00;95839.69;5068899;28;20280;-64
2021/11/23 16:20:58;;;;;;;11.73;7.80;;;;;;;1.36;100.00;95839.69;5052787;28;20081;-63
2021/11/23 16:23:23;;;;;;;13.55;8.48;;;;;;;1.35;100.00;95841.50;5052718;28;20090;-61
2021/11/23 16:25:49;;;;;;;12.43;8.65;;;;;;;1.37;100.00;95836.84;5053909;28;20024;-61
2021/11/23 16:28:16;;;;;;;11.50;7.93;;;;;;;1.38;100.00;95838.50;5055300;28;20016;-63
2021/11/23 16:30:41;;;;;;;12.90;7.80;;;;;;;1.39;100.00;95836.66;5074075;28;20025;-62
2021/11/23 16:33:07;;;;;;;10.80;7.50;;;;;;;1.39;100.00;95831.38;5057475;28;20448;-61
2021/11/23 16:35:32;;;;;;;12.13;7.78;;;;;;;1.39;100.00;95839.31;5075675;28;20463;-62
2021/11/23 16:37:58;;;;;;;13.50;7.70;;;;;;;1.39;100.00;95839.31;5057528;28;20096;-62
2021/11/23 16:40:23;;;;;;;14.55;8.05;;;;;;;1.39;100.00;95829.56;5075206;28;20028;-63
2021/11/23 16:42:48;;;;;;;11.63;7.80;;;;;;;1.41;100.00;95832.00;5070018;28;20025;-64
2021/11/23 16:45:14;;;;;;;15.50;8.52;;;;;;;1.40;100.00;95833.84;5065884;28;20029;-64
2021/11/23 16:47:40;;;;;;;11.98;8.23;;;;;;;1.41;100.00;95832.00;5055992;28;20035;-63
2021/11/23 16:50:06;;;;;;;13.23;8.00;;;;;;;1.43;100.00;95827.38;5073126;28;20387;-63
2021/11/23 16:52:32;;;;;;;12.13;7.28;;;;;;;1.42;100.00;95821.28;5053879;28;20028;-63
2021/11/23 16:54:58;;;;;;;11.38;7.47;;;;;;;1.45;100.00;95820.09;5072361;28;20467;-64
2021/11/23 16:57:23;;;;;;;12.50;8.25;;;;;;;1.44;100.00;95818.44;5055019;28;20023;-63
2021/11/23 16:59:48;;;;;;;12.75;8.38;;;;;;;1.42;100.00;95821.28;5069586;28;20557;-63
2021/11/23 17:02:14;;;;;;;11.52;7.85;;;;;;;1.45;100.00;95822.72;5038080;28;20391;-63
2021/11/23 17:04:39;;;;;;;15.52;8.18;;;;;;;1.47;100.00;95820.69;5039390;28;20036;-63
2021/11/23 17:07:05;;;;;;;12.00;8.15;;;;;;;1.47;100.00;95817.25;5053031;28;21244;-64
2021/11/23 17:09:34;;;;;;;13.23;8.48;;;;;;;1.48;100.00;95824.97;5073946;28;20024;-64
2021/11/23 17:12:04;;;;;;;11.38;7.68;;;;;;;1.48;100.00;95816.25;5039399;28;20025;-63
2021/11/23 17:14:33;;;;;;;15.70;8.57;;;;;;;1.49;100.00;95825.78;5055862;28;20383;-61
2021/11/23 17:17:05;;;;;;;11.68;7.95;;;;;;;1.49;100.00;95821.31;5055738;28;20032;-61
2021/11/23 17:19:30;;;;;;;11.38;7.70;;;;;;;1.51;100.00;95823.78;5055917;28;20111;-62
2021/11/23 17:21:56;;;;;;;12.20;8.25;;;;;;;1.51;100.00;95826.41;5073722;28;20103;-63
2021/11/23 17:24:21;;;;;;;13.50;8.77;;;;;;;1.51;100.00;95824.59;5051147;28;20056;-60
2021/11/23 17:26:48;;;;;;;11.68;7.93;;;;;;;1.51;100.00;95816.66;5053831;28;20086;-63
2021/11/23 17:29:17;;;;;;;13.43;8.35;;;;;;;1.53;100.00;95805.94;5035709;28;20036;-64
2021/11/23 17:31:43;;;;;;;14.60;7.70;;;;;;;1.53;100.00;95814.69;5046075;28;20032;-63
2021/11/23 17:34:10;;;;;;;11.85;7.70;;;;;;;1.54;100.00;95804.94;5051655;28;20031;-64
2021/11/23 17:36:35;;;;;;;11.52;8.27;;;;;;;1.54;100.00;95812.84;5054954;28;20021;-64
2021/11/23 17:39:00;;;;;;;11.95;8.02;;;;;;;1.53;100.00;95804.13;5055117;28;20028;-65
2021/11/23 17:41:27;;;;;;;15.48;8.57;;;;;;;1.53;100.00;95809.41;5051532;28;20033;-61
2021/11/23 17:43:52;;;;;;;13.18;8.25;;;;;;;1.54;100.00;95805.75;5052020;28;20033;-64
2021/11/23 17:46:19;;;;;;;12.18;8.98;;;;;;;1.53;100.00;95793.56;5061793;28;20528;-63
2021/11/23 17:48:45;;;;;;;10.98;7.88;;;;;;;1.53;100.00;95793.56;5054883;28;20020;-64
2021/11/23 17:51:21;;;;;;;12.90;8.65;;;;;;;1.53;100.00;95790.09;5073187;28;20071;-63
2021/11/23 17:53:48;;;;;;;11.60;8.07;;;;;;;1.53;100.00;95790.91;5038731;28;20454;-61
2021/11/23 17:56:17;;;;;;;15.13;9.18;;;;;;;1.51;100.00;95787.63;5038285;28;20518;-63
2021/11/23 17:58:43;;;;;;;12.38;8.70;;;;;;;1.53;100.00;95784.81;5072650;28;20047;-62
2021/11/23 18:01:10;;;;;;;12.07;8.48;;;;;;;1.53;100.00;95783.00;5064728;28;20041;-63
2021/11/23 18:03:35;;;;;;;13.68;8.45;;;;;;;1.52;100.00;95778.72;5052618;28;20048;-67
2021/11/23 18:06:01;;;;;;;12.80;8.93;;;;;;;1.52;100.00;95785.81;5050765;28;20056;-62
2021/11/23 18:08:32;;;;;;;12.57;8.80;;;;;;;1.52;100.00;95784.00;5064838;28;20017;-63
2021/11/23 18:10:58;;;;;;;11.90;8.30;;;;;;;1.53;100.00;95790.91;5068866;28;20122;-62
2021/11/23 18:13:23;;;;;;;13.57;8.68;;;;;;;1.53;100.00;95780.34;5047286;28;20132;-62
2021/11/23 18:15:51;;;;;;;13.30;9.13;;;;;;;1.54;100.00;95784.63;5061022;28;20112;-63
2021/11/23 18:18:17;;;;;;;12.85;9.10;;;;;;;1.53;100.00;95785.63;5051068;28;20394;-62
2021/11/23 18:20:51;;;;;;;13.82;9.10;;;;;;;1.56;100.00;95793.16;5054512;28;20024;-63
2021/11/23 18:23:18;;;;;;;14.50;9.35;;;;;;;1.56;100.00;95784.44;5054839;28;20108;-64
2021/11/23 18:25:44;;;;;;;14.45;9.30;;;;;;;1.57;100.00;95786.06;5038184;28;20379;-63
2021/11/23 18:28:11;;;;;;;14.15;8.75;;;;;;;1.56;100.00;95779.97;5054350;28;20032;-63
2021/11/23 18:30:37;;;;;;;14.35;8.80;;;;;;;1.58;100.00;95775.31;5054279;28;20024;-63
2021/11/23 18:33:06;;;;;;;14.27;10.07;;;;;;;1.56;100.00;95765.94;5038090;28;20069;-63
2021/11/23 18:35:33;;;;;;;13.70;9.25;;;;;;;1.55;100.00;95767.78;5037872;28;20024;-63
2021/11/23 18:38:06;;;;;;;14.38;9.32;;;;;;;1.57;100.00;95764.94;5072272;28;20024;-63
2021/11/23 18:40:36;;;;;;;15.00;10.05;;;;;;;1.59;100.00;95760.28;5034643;28;20083;-63
2021/11/23 18:43:04;;;;;;;12.48;8.43;;;;;;;1.59;100.00;95755.81;5059326;28;20032;-61
2021/11/23 18:45:30;;;;;;;15.35;9.98;;;;;;;1.63;100.00;95748.34;5071281;28;20035;-62
2021/11/23 18:47:57;;;;;;;13.02;9.40;;;;;;;1.64;100.00;95752.59;5051960;28;20017;-63
2021/11/23 18:50:24;;;;;;;14.93;9.52;;;;;;;1.64;100.00;95753.41;5033796;28;20031;-63
2021/11/23 18:52:51;;;;;;;13.45;9.63;;;;;;;1.64;100.00;95750.78;5050822;28;20033;-64
2021/11/23 18:55:19;;;;;;;14.02;9.15;;;;;;;1.65;100.00;95754.22;5050920;28;20036;-63
2021/11/23 18:57:50;;;;;;;13.38;9.60;;;;;;;1.65;100.00;95752.41;5053818;28;20081;-63
2021/11/23 19:00:22;;;;;;;13.25;8.73;;;;;;;1.64;100.00;95748.13;5037392;28;20057;-64
2021/11/23 19:02:48;;;;;;;15.85;9.98;;;;;;;1.68;100.00;95751.19;5045249;28;20028;-63
2021/11/23 19:05:15;;;;;;;14.77;10.07;;;;;;;1.65;100.00;95752.41;5070389;28;20039;-63
2021/11/23 19:07:40;;;;;;;16.27;10.50;;;;;;;1.65;100.00;95755.06;5050249;28;20035;-64
2021/11/23 19:10:07;;;;;;;15.18;9.25;;;;;;;1.65;100.00;95752.41;5063987;28;20570;-61
2021/11/23 19:12:32;;;;;;;14.70;10.25;;;;;;;1.65;100.00;95747.13;5054109;28;20568;-60
2021/11/23 19:15:01;;;;;;;14.70;10.38;;;;;;;1.63;100.00;95743.88;5060596;28;20029;-61
2021/11/23 19:17:26;;;;;;;15.00;10.00;;;;;;;1.62;100.00;95750.13;5058880;28;20441;-62
2021/11/23 19:19:53;;;;;;;15.07;9.38;;;;;;;1.63;100.00;95746.50;5070460;28;20024;-64
2021/11/23 19:22:19;;;;;;;17.42;9.88;;;;;;;1.62;100.00;95744.84;5070993;28;20047;-64
2021/11/23 19:24:49;;;;;;;16.40;10.57;;;;;;;1.62;100.00;95741.41;5070545;28;20441;-63
2021/11/23 19:27:16;;;;;;;13.18;9.48;;;;;;;1.62;100.00;95734.28;5053341;28;20048;-63
2021/11/23 19:29:41;;;;;;;15.15;9.90;;;;;;;1.61;100.00;95737.94;5052115;28;20028;-64
2021/11/23 19:32:21;;;;;;;13.63;10.02;;;;;;;1.63;100.00;95732.50;5070953;28;20034;-64
2021/11/23 19:34:50;;;;;;;15.10;9.93;;;;;;;1.62;100.00;95739.56;5052791;28;20517;-61
2021/11/23 19:37:27;;;;;;;15.38;9.90;;;;;;;1.61;100.00;95735.31;5071152;28;20031;-62
2021/11/23 19:39:53;;;;;;;14.88;9.85;;;;;;;1.61;100.00;95739.78;5068137;28;20111;-60
2021/11/23 19:42:18;;;;;;;14.73;10.15;;;;;;;1.60;100.00;95732.84;5071028;28;20100;-63
2021/11/23 19:44:44;;;;;;;15.05;10.15;;;;;;;1.61;100.00;95735.31;5052276;28;20036;-63
2021/11/23 19:47:09;;;;;;;14.30;9.57;;;;;;;1.62;100.00;95736.94;5070283;28;20143;-63
2021/11/23 19:49:34;;;;;;;13.65;9.60;;;;;;;1.62;100.00;95734.28;5068677;28;20690;-65
2021/11/23 19:52:03;;;;;;;14.88;9.80;;;;;;;1.63;100.00;95728.03;5069386;28;20056;-61
2021/11/23 19:54:28;;;;;;;15.40;9.85;;;;;;;1.62;100.00;95728.19;5068392;28;20048;-62
2021/11/23 19:56:57;;;;;;;15.73;10.43;;;;;;;1.63;100.00;95716.66;5068981;28;20066;-64
2021/11/23 19:59:22;;;;;;;14.93;10.48;;;;;;;1.64;100.00;95718.28;5084138;22;20049;-65
2021/11/23 20:01:49;;;;;;;16.15;10.15;;;;;;;1.64;100.00;95726.19;5080329;28;20036;-63
2021/11/23 20:04:17;;;;;;;15.65;9.35;;;;;;;1.63;100.00;95729.84;5071599;28;20027;-57
2021/11/23 20:06:46;;;;;;;12.85;9.23;;;;;;;1.63;100.00;95730.66;5076924;28;20039;-59
2021/11/23 20:09:15;;;;;;;12.73;9.07;;;;;;;1.65;100.00;95731.28;5080280;28;20111;-59
2021/11/23 20:11:45;;;;;;;12.98;9.07;;;;;;;1.65;100.00;95726.00;5056460;28;20419;-62
2021/11/23 20:14:11;;;;;;;14.77;10.05;;;;;;;1.66;100.00;95718.91;5074426;28;20375;-58
2021/11/23 20:16:40;;;;;;;13.27;9.68;;;;;;;1.66;100.00;95717.06;5056196;28;20023;-61
2021/11/23 20:19:07;;;;;;;14.75;9.57;;;;;;;1.66;100.00;95716.25;5068487;28;20035;-58
2021/11/23 20:21:33;;;;;;;15.45;10.38;;;;;;;1.65;100.00;95715.44;5054768;28;20434;-60
2021/11/23 20:23:59;;;;;;;15.77;10.52;;;;;;;1.64;100.00;95713.00;5054811;28;20089;-63
2021/11/23 20:26:26;;;;;;;14.45;9.85;;;;;;;1.66;100.00;95710.97;5053529;28;20506;-62
2021/11/23 20:28:52;;;;;;;12.77;9.25;;;;;;;1.64;100.00;95719.09;5053676;28;20033;-60
2021/11/23 20:31:20;;;;;;;14.13;9.73;;;;;;;1.65;100.00;95718.09;5053298;28;20021;-59
2021/11/23 20:33:46;;;;;;;15.00;9.85;;;;;;;1.65;100.00;95712.81;5042436;28;20024;-61
2021/11/23 20:36:12;;;;;;;14.52;9.40;;;;;;;1.65;100.00;95712.81;5039896;28;20024;-59
2021/11/23 20:38:42;;;;;;;13.25;9.20;;;;;;;1.64;100.00;95710.34;5074596;28;20029;-61
2021/11/23 20:41:11;;;;;;;15.00;9.63;;;;;;;1.65;100.00;95710.16;5074361;28;20356;-58
2021/11/23 20:43:37;;;;;;;13.35;9.23;;;;;;;1.66;100.00;95722.34;5074464;28;20016;-63
2021/11/23 20:46:02;;;;;;;14.45;10.05;;;;;;;1.65;100.00;95710.16;5074153;28;20047;-61
2021/11/23 20:48:30;;;;;;;16.17;9.85;;;;;;;1.64;100.00;95708.53;5054622;28;20036;-58
2021/11/23 20:50:55;;;;;;;15.38;10.02;;;;;;;1.63;100.00;95711.38;5071826;28;20502;-63
2021/11/23 20:53:24;;;;;;;14.25;9.60;;;;;;;1.64;100.00;95708.53;5046913;28;20052;-60
2021/11/23 20:55:55;;;;;;;12.82;9.02;;;;;;;1.63;100.00;95698.97;5052566;28;20028;-62
2021/11/23 20:58:20;;;;;;;15.77;8.90;;;;;;;1.62;100.00;95699.16;5054369;28;20025;-59
2021/11/23 21:00:45;;;;;;;13.80;9.40;;;;;;;1.62;100.00;95699.97;5065212;28;20090;-57
2021/11/23 21:03:11;;;;;;;14.20;9.70;;;;;;;1.61;100.00;95687.78;5056358;28;20101;-57
2021/11/23 21:05:43;;;;;;;14.63;9.52;;;;;;;1.58;100.00;95698.72;5036049;28;20460;-60
2021/11/23 21:08:09;;;;;;;13.95;9.45;;;;;;;1.58;100.00;95697.91;5036873;28;20501;-58
2021/11/23 21:10:38;;;;;;;15.52;10.00;;;;;;;1.57;100.00;95694.47;5047831;28;20042;-62
2021/11/23 21:13:05;;;;;;;13.35;9.40;;;;;;;1.56;100.00;95689.38;5073396;28;20029;-57
2021/11/23 21:15:34;;;;;;;14.35;9.73;;;;;;;1.56;100.00;95694.66;5073960;28;20467;-57
2021/11/23 21:17:59;;;;;;;12.15;9.25;;;;;;;1.55;100.00;95685.13;5073191;28;20486;-60
2021/11/23 21:20:25;;;;;;;14.57;9.73;;;;;;;1.55;100.00;95687.75;5073403;28;20050;-64
2021/11/23 21:22:51;;;;;;;13.68;9.23;;;;;;;1.55;100.00;95685.13;5073661;28;20021;-61
2021/11/23 21:25:17;;;;;;;14.32;9.45;;;;;;;1.55;100.00;95690.41;5055981;28;20020;-59
2021/11/23 21:27:42;;;;;;;14.15;9.40;;;;;;;1.54;100.00;95681.66;5038880;28;20035;-61
2021/11/23 21:30:09;;;;;;;14.30;9.60;;;;;;;1.54;100.00;95667.66;5073604;28;20017;-60
2021/11/23 21:32:34;;;;;;;13.70;9.25;;;;;;;1.53;100.00;95680.03;5055515;28;20114;-60
2021/11/23 21:34:59;;;;;;;12.93;9.07;;;;;;;1.53;100.00;95673.94;5055660;28;20052;-59
2021/11/23 21:39:59;;;;;;;14.95;10.10;;;;;;;1.50;100.00;95677.75;5056333;28;20491;-60
2021/11/23 21:42:26;;;;;;;15.38;9.65;;;;;;;1.52;100.00;95675.75;5055532;28;20039;-61
2021/11/23 21:44:58;;;;;;;14.30;10.05;;;;;;;1.50;100.00;95669.84;5073387;28;20111;-57
2021/11/23 21:47:24;;;;;;;14.43;10.10;;;;;;;1.51;100.00;95668.00;5055062;28;20055;-64
2021/11/23 21:49:53;;;;;;;13.00;9.68;;;;;;;1.49;100.00;95662.94;5041403;28;20098;-61
2021/11/23 21:52:20;;;;;;;13.00;9.68;;;;;;;1.50;100.00;95669.84;5073349;28;20024;-59
2021/11/23 21:54:45;;;;;;;14.07;10.10;;;;;;;1.49;100.00;95664.75;5071946;28;20116;-61
2021/11/23 21:57:10;;;;;;;14.98;10.50;;;;;;;1.47;100.00;95662.31;5069855;28;20099;-57
2021/11/23 21:59:38;;;;;;;13.15;9.43;;;;;;;1.48;100.00;95663.13;5072697;28;20036;-59
2021/11/23 22:02:05;;;;;;;13.93;9.82;;;;;;;1.45;100.00;95657.22;5070026;28;20025;-60
2021/11/23 22:04:31;;;;;;;13.25;9.43;;;;;;;1.46;100.00;95663.31;5066490;28;20144;-58
2021/11/23 22:06:58;;;;;;;13.50;9.55;;;;;;;1.47;100.00;95666.78;5072193;28;20107;-61
2021/11/23 22:09:24;;;;;;;15.27;9.90;;;;;;;1.47;100.00;95670.22;5051876;28;20463;-61
2021/11/23 22:11:49;;;;;;;14.18;10.07;;;;;;;1.48;100.00;95677.13;5051898;28;20023;-60
2021/11/23 22:14:14;;;;;;;14.75;10.18;;;;;;;1.47;100.00;95672.88;5053441;28;20060;-61
2021/11/23 22:16:55;;;;;;;14.30;9.38;;;;;;;1.47;100.00;95672.88;5053452;28;20025;-60
2021/11/23 22:19:21;;;;;;;13.48;9.85;;;;;;;1.48;100.00;95663.94;5035847;28;20035;-57
2021/11/23 22:21:46;;;;;;;14.63;10.35;;;;;;;1.49;100.00;95662.94;5053329;28;20029;-59
2021/11/23 22:24:11;;;;;;;14.80;10.13;;;;;;;1.51;100.00;95668.00;5051361;28;20112;-59
